Time;durP1;ratioP1;P1;durP2;ratioP2;P2;SDS_P1;SDS_P2;PMS_P1;PMS_P2;Temp;Humidity;BMP_temperature;BMP_pressure;BME280_temperature;BME280_humidity;BME280_pressure;Samples;Min_cycle;Max_cycle;Signal;HPM_P1;HPM_P2
2023/07/28 00:00:23;;;;;;;0.15;0.15;;;;;;;23.07;60.84;99487.88;4514861;28;20112;-69
2023/07/28 00:02:34;;;;;;;0.25;0.20;;;;;;;23.06;60.73;99492.81;4513452;28;20038;-69
2023/07/28 00:04:44;;;;;;;0.20;0.20;;;;;;;23.07;60.89;99488.69;4512162;28;20133;-69
2023/07/28 00:06:55;;;;;;;0.57;0.20;;;;;;;23.03;60.81;99482.13;4513273;28;20764;-68
2023/07/28 00:09:05;;;;;;;0.20;0.20;;;;;;;23.05;60.75;99485.41;4514448;28;20034;-69
2023/07/28 00:11:16;;;;;;;0.20;0.20;;;;;;;23.05;60.89;99481.72;4511963;28;20498;-68
2023/07/28 00:13:26;;;;;;;0.20;0.20;;;;;;;23.06;61.07;99497.72;4513452;28;20049;-69
2023/07/28 00:15:36;;;;;;;0.10;0.10;;;;;;;23.06;60.70;99492.81;4512805;28;20588;-69
2023/07/28 00:17:47;;;;;;;0.68;0.15;;;;;;;23.04;61.11;99480.88;4513120;28;20160;-69
2023/07/28 00:19:57;;;;;;;0.22;0.10;;;;;;;23.02;60.85;99486.25;4504139;28;20089;-69
2023/07/28 00:22:08;;;;;;;0.10;0.10;;;;;;;23.02;60.85;99483.38;4529248;28;20033;-69
2023/07/28 00:24:18;;;;;;;0.32;0.20;;;;;;;23.05;60.80;99491.19;4515270;28;20037;-69
2023/07/28 00:26:29;;;;;;;0.13;0.10;;;;;;;23.03;61.03;99478.41;4516387;28;20601;-68
2023/07/28 00:28:39;;;;;;;0.10;0.10;;;;;;;23.02;61.07;99480.50;4523463;28;20053;-69
2023/07/28 00:30:50;;;;;;;0.05;0.05;;;;;;;23.04;60.98;99482.94;4515950;28;20042;-69
2023/07/28 00:33:00;;;;;;;1.05;0.20;;;;;;;23.03;61.01;99481.28;4516666;28;20702;-68
2023/07/28 00:35:11;;;;;;;0.10;0.10;;;;;;;23.02;60.81;99485.41;4517450;28;20497;-69
2023/07/28 00:37:22;;;;;;;0.10;0.10;;;;;;;23.02;60.86;99485.41;4516484;28;20122;-69
2023/07/28 00:39:33;;;;;;;0.10;0.10;;;;;;;23.02;60.84;99477.59;4516509;28;20131;-69
2023/07/28 00:41:45;;;;;;;0.10;0.10;;;;;;;23.02;60.83;99474.72;4513886;28;20486;-68
2023/07/28 00:43:55;;;;;;;0.20;0.20;;;;;;;22.97;61.05;99466.50;4515522;28;20149;-69
2023/07/28 00:46:06;;;;;;;0.55;0.17;;;;;;;23.02;60.96;99476.78;4517103;28;20045;-68
2023/07/28 00:48:17;;;;;;;0.15;0.15;;;;;;;23.02;61.13;99468.16;4516293;28;20026;-69
2023/07/28 00:50:29;;;;;;;0.15;0.15;;;;;;;23.02;60.99;99473.91;4515299;28;20123;-68
2023/07/28 00:52:39;;;;;;;0.10;0.10;;;;;;;23.01;60.89;99472.22;4506795;28;20593;-68
2023/07/28 00:54:50;;;;;;;0.10;0.10;;;;;;;23.01;60.79;99475.09;4515961;28;20049;-69
2023/07/28 00:57:02;;;;;;;0.75;0.20;;;;;;;22.99;60.86;99474.72;4518828;28;20053;-68
2023/07/28 00:59:13;;;;;;;0.28;0.28;;;;;;;22.99;60.95;99471.84;4514918;28;20580;-68
2023/07/28 01:01:24;;;;;;;0.40;0.30;;;;;;;22.94;61.00;99466.50;4514778;28;20796;-68
2023/07/28 01:03:34;;;;;;;0.32;0.20;;;;;;;23.00;61.11;99464.84;4518115;28;20037;-68
2023/07/28 01:05:50;;;;;;;0.20;0.20;;;;;;;23.01;60.99;99469.34;4516478;28;20042;-68
2023/07/28 01:08:27;;;;;;;0.20;0.20;;;;;;;22.99;60.69;99464.00;4514739;28;20041;-68
2023/07/28 01:10:38;;;;;;;0.30;0.10;;;;;;;22.99;60.84;99471.84;4498590;28;20036;-67
2023/07/28 01:12:49;;;;;;;0.15;0.15;;;;;;;22.99;60.78;99468.97;4516556;28;20041;-69
2023/07/28 01:14:59;;;;;;;0.22;0.15;;;;;;;22.99;60.65;99466.88;4516206;28;20486;-68
2023/07/28 01:17:10;;;;;;;0.20;0.20;;;;;;;22.95;60.71;99462.38;4515604;28;20124;-68
2023/07/28 01:19:22;;;;;;;0.20;0.20;;;;;;;23.00;60.71;99476.34;4513574;28;20072;-68
2023/07/28 01:21:33;;;;;;;0.30;0.30;;;;;;;22.97;60.72;99469.38;4501659;28;20040;-68
2023/07/28 01:24:05;;;;;;;0.90;0.30;;;;;;;23.00;60.51;99477.19;4515977;28;20056;-68
2023/07/28 01:26:18;;;;;;;0.30;0.30;;;;;;;22.99;60.64;99477.59;4515166;28;20041;-68
2023/07/28 01:28:29;;;;;;;0.43;0.40;;;;;;;22.97;60.38;99463.63;4513970;28;20505;-68
2023/07/28 01:30:39;;;;;;;0.40;0.30;;;;;;;22.99;60.50;99474.72;4517110;28;20064;-68
2023/07/28 01:32:50;;;;;;;0.40;0.30;;;;;;;22.96;60.49;99476.34;4505977;28;20581;-69
2023/07/28 01:35:02;;;;;;;0.10;0.10;;;;;;;22.98;60.54;99467.31;4515023;28;20167;-68
2023/07/28 01:37:13;;;;;;;0.73;0.30;;;;;;;22.94;60.63;99464.44;4506757;28;20114;-68
2023/07/28 01:39:23;;;;;;;0.30;0.30;;;;;;;22.97;60.62;99469.38;4517074;28;20833;-68
2023/07/28 01:41:34;;;;;;;0.38;0.38;;;;;;;22.97;60.40;99471.44;4514398;28;20029;-67
2023/07/28 01:43:44;;;;;;;1.00;0.40;;;;;;;22.97;60.63;99471.44;4513052;28;20513;-68
2023/07/28 01:45:55;;;;;;;0.50;0.40;;;;;;;22.96;60.48;99475.53;4512341;28;20041;-68
2023/07/28 01:48:05;;;;;;;0.40;0.40;;;;;;;22.92;60.46;99466.06;4522369;28;20961;-67
2023/07/28 01:50:16;;;;;;;0.90;0.50;;;;;;;22.97;60.47;99477.19;4515129;28;20041;-67
2023/07/28 01:52:26;;;;;;;0.30;0.30;;;;;;;22.96;60.44;99475.53;4516547;28;20037;-68
2023/07/28 01:54:36;;;;;;;0.77;0.30;;;;;;;22.94;60.34;99473.09;4515043;28;20141;-68
2023/07/28 01:56:47;;;;;;;0.35;0.30;;;;;;;22.93;60.19;99467.75;4514945;28;20108;-68
2023/07/28 01:58:58;;;;;;;0.40;0.40;;;;;;;22.97;60.50;99477.19;4516540;28;20033;-68
2023/07/28 02:01:08;;;;;;;0.20;0.20;;;;;;;22.97;60.41;99480.06;4491029;28;20742;-68
2023/07/28 02:03:19;;;;;;;0.50;0.30;;;;;;;22.91;60.36;99475.94;4506138;28;20041;-68
2023/07/28 02:05:30;;;;;;;0.35;0.35;;;;;;;22.95;60.17;99485.41;4516759;28;20123;-68
2023/07/28 02:07:41;;;;;;;0.38;0.38;;;;;;;22.76;60.53;99448.38;4513163;28;20576;-68
2023/07/28 02:09:52;;;;;;;0.30;0.30;;;;;;;22.95;60.25;99479.63;4517585;28;20776;-68
2023/07/28 02:12:02;;;;;;;0.55;0.30;;;;;;;22.94;60.30;99480.88;4514511;28;20092;-68
2023/07/28 02:16:39;;;;;;;0.20;0.20;;;;;;;22.93;60.37;99487.88;5015236;22;20076;-66
2023/07/28 02:18:50;;;;;;;0.30;0.30;;;;;;;22.94;60.28;99489.50;4515854;28;20547;-66
2023/07/28 02:21:00;;;;;;;0.22;0.22;;;;;;;22.92;60.31;99483.34;4515587;28;20079;-66
2023/07/28 02:23:10;;;;;;;0.85;0.30;;;;;;;22.93;60.26;99487.88;4501189;28;20042;-66
2023/07/28 02:25:21;;;;;;;0.30;0.30;;;;;;;22.83;60.18;99483.75;4514227;28;20115;-66
2023/07/28 02:27:31;;;;;;;0.38;0.32;;;;;;;22.90;60.29;99488.66;4499295;28;20042;-66
2023/07/28 02:29:42;;;;;;;0.25;0.25;;;;;;;22.93;60.52;99494.44;4507425;28;20100;-66
2023/07/28 02:31:53;;;;;;;0.30;0.30;;;;;;;22.91;60.88;99488.25;4516109;28;20486;-66
2023/07/28 02:34:03;;;;;;;0.68;0.40;;;;;;;22.90;60.70;99495.25;4513340;28;20130;-66
2023/07/28 02:36:14;;;;;;;0.32;0.32;;;;;;;22.90;60.32;99501.00;4504130;28;20040;-67
2023/07/28 02:38:24;;;;;;;0.20;0.20;;;;;;;22.89;60.06;99487.03;4497116;28;20040;-67
2023/07/28 02:40:34;;;;;;;0.52;0.20;;;;;;;22.91;60.42;99502.66;4515651;28;20025;-67
2023/07/28 02:42:45;;;;;;;0.30;0.30;;;;;;;22.91;60.34;99493.22;4499816;28;20038;-66
2023/07/28 02:44:55;;;;;;;0.30;0.30;;;;;;;22.93;60.44;99503.06;4513302;28;20084;-66
2023/07/28 02:47:06;;;;;;;0.20;0.20;;;;;;;22.87;60.44;99496.09;4513418;28;21046;-66
2023/07/28 02:49:16;;;;;;;0.38;0.38;;;;;;;22.91;60.42;99510.47;4514965;28;20044;-66
2023/07/28 02:51:27;;;;;;;0.30;0.30;;;;;;;22.88;60.71;99505.53;4499767;28;20975;-67
2023/07/28 02:53:37;;;;;;;0.30;0.30;;;;;;;22.90;60.74;99506.78;4507509;28;20406;-66
2023/07/28 02:55:48;;;;;;;0.47;0.40;;;;;;;22.87;60.79;99496.09;4514623;28;20120;-66
2023/07/28 02:57:58;;;;;;;0.98;0.30;;;;;;;22.83;60.77;99497.31;4515335;28;20045;-66
2023/07/28 03:00:10;;;;;;;0.30;0.30;;;;;;;22.84;60.70;99505.53;4514325;28;20034;-66
2023/07/28 03:02:21;;;;;;;0.85;0.40;;;;;;;22.90;60.42;99512.53;4499281;28;20031;-67
2023/07/28 03:04:31;;;;;;;0.30;0.30;;;;;;;22.90;60.44;99520.31;4499002;28;20033;-67
2023/07/28 03:06:50;;;;;;;0.30;0.30;;;;;;;22.91;60.76;99522.00;4512374;28;20048;-67
2023/07/28 03:09:01;;;;;;;0.40;0.32;;;;;;;22.89;60.61;99515.81;4497232;28;20100;-66
2023/07/28 03:11:26;;;;;;;0.32;0.32;;;;;;;22.88;60.46;99523.59;4500077;28;20025;-66
2023/07/28 03:13:37;;;;;;;0.30;0.30;;;;;;;22.91;60.46;99524.88;4488746;28;20046;-67
2023/07/28 03:15:47;;;;;;;0.30;0.30;;;;;;;22.90;60.68;99517.44;4514419;28;20038;-67
2023/07/28 03:17:58;;;;;;;0.30;0.30;;;;;;;22.88;60.73;99526.50;4500494;28;20372;-66
2023/07/28 03:20:09;;;;;;;0.40;0.40;;;;;;;22.87;60.74;99527.72;4512534;28;20062;-66
2023/07/28 03:22:19;;;;;;;0.25;0.25;;;;;;;22.89;60.69;99527.31;4512471;28;20030;-67
2023/07/28 03:24:30;;;;;;;0.77;0.77;;;;;;;22.86;60.52;99516.63;4499089;28;20038;-66
2023/07/28 03:26:40;;;;;;;0.30;0.30;;;;;;;22.83;60.83;99511.69;4498602;28;20034;-66
2023/07/28 03:28:51;;;;;;;0.85;0.30;;;;;;;22.88;60.66;99526.50;4514181;28;20033;-66
2023/07/28 03:31:01;;;;;;;0.55;0.30;;;;;;;22.90;60.70;99534.72;4499707;28;20117;-66
2023/07/28 03:33:11;;;;;;;0.22;0.22;;;;;;;22.84;60.99;99524.84;4499152;28;20034;-66
2023/07/28 03:35:22;;;;;;;0.30;0.30;;;;;;;22.84;60.82;99524.84;4504995;28;20442;-66
2023/07/28 03:37:41;;;;;;;1.27;0.32;;;;;;;22.86;60.68;99533.91;4504641;28;20801;-70
2023/07/28 03:39:52;;;;;;;0.30;0.30;;;;;;;22.88;60.73;99535.13;4488963;28;20038;-67
2023/07/28 03:42:05;;;;;;;1.05;0.32;;;;;;;22.88;60.93;99538.00;4499845;28;20065;-67
2023/07/28 03:44:16;;;;;;;0.52;0.40;;;;;;;22.89;61.05;99538.84;4500494;28;20570;-66
2023/07/28 03:46:26;;;;;;;0.55;0.30;;;;;;;22.84;60.88;99536.34;4499110;28;20498;-68
2023/07/28 03:48:37;;;;;;;0.30;0.30;;;;;;;22.87;60.97;99535.53;4498449;28;20108;-66
2023/07/28 03:50:47;;;;;;;0.65;0.40;;;;;;;22.87;60.91;99541.28;4504671;28;20049;-67
2023/07/28 03:52:58;;;;;;;0.20;0.20;;;;;;;22.84;60.98;99536.34;4514046;28;20036;-66
2023/07/28 03:55:09;;;;;;;0.30;0.30;;;;;;;22.88;60.86;99537.19;4512937;28;20045;-65
2023/07/28 03:57:19;;;;;;;0.30;0.30;;;;;;;22.87;61.05;99541.28;4501915;28;20022;-66
2023/07/28 03:59:29;;;;;;;0.30;0.30;;;;;;;22.85;61.47;99532.25;4516507;28;20058;-67
2023/07/28 04:01:40;;;;;;;0.30;0.30;;;;;;;22.86;61.05;99531.03;4503188;28;20109;-66
2023/07/28 04:03:50;;;;;;;0.57;0.50;;;;;;;22.85;60.90;99533.06;4516385;28;20030;-66
2023/07/28 04:06:06;;;;;;;0.30;0.30;;;;;;;22.85;61.07;99529.38;4516373;28;20045;-66
2023/07/28 04:08:17;;;;;;;0.38;0.38;;;;;;;22.85;60.86;99526.50;4500543;28;20132;-67
2023/07/28 04:10:27;;;;;;;0.40;0.40;;;;;;;22.87;60.92;99532.66;4487193;28;20046;-66
2023/07/28 04:12:38;;;;;;;0.30;0.30;;;;;;;22.86;61.30;99534.72;4516357;28;20500;-66
2023/07/28 04:14:48;;;;;;;0.28;0.28;;;;;;;22.85;61.07;99529.38;4517028;28;20664;-66
2023/07/28 04:16:59;;;;;;;0.30;0.30;;;;;;;22.85;61.02;99529.38;4497644;28;20037;-66
2023/07/28 04:19:09;;;;;;;0.50;0.30;;;;;;;22.86;61.01;99533.91;4516902;28;20045;-66
2023/07/28 04:21:20;;;;;;;0.88;0.40;;;;;;;22.83;61.02;99534.72;4516783;28;20041;-66
2023/07/28 04:23:31;;;;;;;0.30;0.30;;;;;;;22.85;61.06;99538.03;4507711;28;20176;-66
2023/07/28 04:25:41;;;;;;;0.35;0.35;;;;;;;22.83;61.20;99537.59;4516390;28;20077;-66
2023/07/28 04:27:51;;;;;;;0.40;0.40;;;;;;;22.85;61.14;99546.66;4516437;28;20067;-66
2023/07/28 04:30:02;;;;;;;0.30;0.30;;;;;;;22.80;61.28;99542.09;4504936;28;20080;-66
2023/07/28 04:32:13;;;;;;;1.05;0.40;;;;;;;22.84;60.86;99547.84;4502447;28;20113;-66
2023/07/28 04:34:23;;;;;;;0.30;0.30;;;;;;;22.83;61.16;99549.09;4507534;28;20042;-66
2023/07/28 04:36:50;;;;;;;1.50;0.40;;;;;;;22.85;61.25;99556.09;4504547;28;20026;-66
2023/07/28 04:39:04;;;;;;;0.30;0.30;;;;;;;22.81;61.17;99542.94;4501661;28;20038;-66
2023/07/28 04:41:14;;;;;;;0.30;0.30;;;;;;;22.79;61.08;99546.22;4492208;28;20030;-66
2023/07/28 04:43:35;;;;;;;0.30;0.30;;;;;;;22.84;60.99;99547.84;4507695;28;20045;-66
2023/07/28 04:45:45;;;;;;;0.30;0.30;;;;;;;22.83;61.23;99551.97;4503602;28;20037;-66
2023/07/28 04:48:00;;;;;;;0.80;0.40;;;;;;;22.83;61.42;99564.31;4500424;28;20753;-66
2023/07/28 04:50:11;;;;;;;1.08;0.30;;;;;;;22.84;61.41;99568.00;4509089;28;20045;-66
2023/07/28 04:52:36;;;;;;;0.22;0.22;;;;;;;22.82;61.17;99556.91;4512460;28;20022;-66
2023/07/28 04:55:06;;;;;;;0.28;0.28;;;;;;;22.79;61.22;99551.97;4506424;28;20033;-66
2023/07/28 04:57:19;;;;;;;0.30;0.30;;;;;;;22.84;61.39;99570.88;4501704;28;20049;-67
2023/07/28 04:59:29;;;;;;;0.22;0.22;;;;;;;22.81;61.42;99565.94;4501504;28;20026;-66
2023/07/28 05:01:40;;;;;;;0.20;0.20;;;;;;;22.84;61.30;99568.00;4502117;28;20045;-66
2023/07/28 05:03:50;;;;;;;0.32;0.20;;;;;;;22.84;61.40;99571.72;4504873;28;20044;-66
2023/07/28 05:06:07;;;;;;;0.30;0.30;;;;;;;22.73;61.58;99544.13;4516632;28;20099;-66
2023/07/28 05:08:18;;;;;;;0.30;0.28;;;;;;;22.83;61.34;99570.06;4501592;28;20038;-66
2023/07/28 05:10:28;;;;;;;0.20;0.20;;;;;;;22.85;61.29;99563.91;4502968;28;20513;-67
2023/07/28 05:12:39;;;;;;;1.15;0.30;;;;;;;22.82;61.43;99574.16;4516941;28;20017;-66
2023/07/28 05:14:49;;;;;;;0.95;0.30;;;;;;;22.83;61.75;99566.38;4501746;28;20056;-66
2023/07/28 05:17:03;;;;;;;0.28;0.28;;;;;;;22.83;61.30;99567.19;4501780;28;20034;-66
2023/07/28 05:19:21;;;;;;;0.40;0.30;;;;;;;22.82;61.56;99579.91;4506131;28;20600;-66
2023/07/28 05:21:51;;;;;;;0.20;0.20;;;;;;;22.80;61.58;99567.19;4513384;28;20049;-66
2023/07/28 05:24:05;;;;;;;0.20;0.20;;;;;;;22.81;61.55;99568.81;4498087;28;20042;-68
2023/07/28 05:26:17;;;;;;;0.45;0.30;;;;;;;22.69;61.57;99547.00;4500810;28;20052;-66
2023/07/28 05:28:28;;;;;;;0.30;0.30;;;;;;;22.84;61.46;99559.38;4515736;28;20044;-66
2023/07/28 05:30:40;;;;;;;0.22;0.22;;;;;;;22.83;61.68;99569.25;4500706;28;20039;-66
2023/07/28 05:32:53;;;;;;;0.30;0.30;;;;;;;22.82;61.45;99573.34;4516405;28;20030;-66
2023/07/28 05:35:08;;;;;;;0.32;0.30;;;;;;;22.82;61.53;99577.03;4497914;28;20046;-66
2023/07/28 05:37:18;;;;;;;0.30;0.20;;;;;;;22.80;61.68;99582.38;4501778;28;20046;-66
2023/07/28 05:39:29;;;;;;;0.40;0.40;;;;;;;22.83;61.65;99580.75;4516338;28;20034;-66
2023/07/28 05:41:39;;;;;;;0.30;0.30;;;;;;;22.79;61.65;99574.97;4498343;28;20079;-66
2023/07/28 05:43:52;;;;;;;0.20;0.20;;;;;;;22.77;61.85;99565.13;4501431;28;20033;-66
2023/07/28 05:46:03;;;;;;;0.40;0.30;;;;;;;22.79;61.92;99565.50;4499818;28;20041;-66
2023/07/28 05:48:17;;;;;;;0.30;0.30;;;;;;;22.82;61.70;99579.09;4499237;28;20927;-67
2023/07/28 05:50:28;;;;;;;0.43;0.43;;;;;;;22.79;61.79;99574.16;4501303;28;20097;-66
2023/07/28 05:52:38;;;;;;;0.43;0.40;;;;;;;22.82;61.60;99576.22;4500399;28;20109;-66
2023/07/28 05:54:48;;;;;;;0.45;0.45;;;;;;;22.80;61.83;99572.94;4515324;28;20042;-66
2023/07/28 05:56:59;;;;;;;0.43;0.43;;;;;;;22.78;61.88;99569.63;4499677;28;20498;-66
2023/07/28 05:59:09;;;;;;;0.38;0.38;;;;;;;22.83;61.81;99586.50;4499872;28;20129;-66
2023/07/28 06:01:20;;;;;;;0.45;0.40;;;;;;;22.82;61.87;99585.66;4506184;28;20034;-67
2023/07/28 06:03:51;;;;;;;0.40;0.40;;;;;;;22.81;62.06;99583.19;4493161;28;20073;-66
2023/07/28 06:06:07;;;;;;;0.60;0.57;;;;;;;22.81;62.04;99588.97;4504525;28;20033;-65
2023/07/28 06:08:17;;;;;;;1.02;0.50;;;;;;;22.81;62.15;99584.03;4506247;28;20084;-67
2023/07/28 06:10:28;;;;;;;0.40;0.40;;;;;;;22.83;61.80;99592.25;4505690;28;20041;-66
2023/07/28 06:12:38;;;;;;;0.60;0.40;;;;;;;22.83;62.23;99586.50;4498038;28;20038;-66
2023/07/28 06:14:49;;;;;;;0.75;0.38;;;;;;;22.81;62.66;99591.84;4506286;28;20041;-66
2023/07/28 06:16:59;;;;;;;0.40;0.40;;;;;;;22.81;62.66;99588.97;4499224;28;20133;-65
2023/07/28 06:19:15;;;;;;;0.45;0.45;;;;;;;22.82;62.29;99599.22;4487926;28;20916;-66
2023/07/28 06:21:26;;;;;;;0.40;0.40;;;;;;;22.83;62.50;99603.78;4488441;28;20894;-65
2023/07/28 06:23:36;;;;;;;0.50;0.50;;;;;;;22.82;62.75;99605.81;4506605;28;20045;-66
2023/07/28 06:25:47;;;;;;;0.50;0.50;;;;;;;22.83;62.92;99609.53;4500322;28;20029;-65
2023/07/28 06:27:58;;;;;;;0.52;0.35;;;;;;;22.82;62.29;99607.84;4500663;28;20038;-66
2023/07/28 06:30:08;;;;;;;0.38;0.38;;;;;;;22.78;62.73;99604.16;4505522;28;20507;-66
2023/07/28 06:32:20;;;;;;;0.85;0.50;;;;;;;22.79;62.33;99603.75;4499637;28;20021;-66
2023/07/28 06:34:30;;;;;;;0.50;0.50;;;;;;;22.83;62.90;99615.28;4497686;28;20878;-66
2023/07/28 06:36:41;;;;;;;0.50;0.40;;;;;;;22.78;62.37;99607.03;4515711;28;20036;-66
2023/07/28 06:38:54;;;;;;;0.40;0.40;;;;;;;22.79;62.53;99615.25;4514580;28;20034;-66
2023/07/28 06:41:04;;;;;;;0.30;0.30;;;;;;;22.83;62.98;99623.91;4504698;28;20141;-66
2023/07/28 06:43:15;;;;;;;0.30;0.30;;;;;;;22.77;62.58;99617.72;4503383;28;20081;-66
2023/07/28 06:45:26;;;;;;;0.45;0.40;;;;;;;22.77;62.50;99611.94;4506894;28;20048;-66
2023/07/28 06:47:36;;;;;;;0.40;0.40;;;;;;;22.81;62.49;99617.72;4513708;28;20046;-66
2023/07/28 06:49:47;;;;;;;0.47;0.43;;;;;;;22.78;62.60;99618.53;4514095;28;20025;-66
2023/07/28 06:51:57;;;;;;;0.57;0.43;;;;;;;22.80;62.31;99627.59;4505822;28;20029;-66
2023/07/28 06:54:12;;;;;;;0.60;0.55;;;;;;;22.82;61.99;99642.38;4505700;28;20454;-66
2023/07/28 06:56:22;;;;;;;0.35;0.35;;;;;;;22.79;62.30;99637.44;4514467;28;20092;-66
2023/07/28 06:58:35;;;;;;;0.30;0.30;;;;;;;22.81;62.22;99640.75;4499267;28;20038;-65
2023/07/28 07:00:45;;;;;;;0.40;0.40;;;;;;;22.77;62.15;99639.94;4514291;28;20045;-66
2023/07/28 07:02:56;;;;;;;0.40;0.40;;;;;;;22.78;62.39;99636.63;4499588;28;20030;-66
2023/07/28 07:05:07;;;;;;;0.50;0.50;;;;;;;22.79;62.30;99648.94;4513794;28;20168;-66
2023/07/28 07:07:17;;;;;;;0.40;0.40;;;;;;;22.79;62.10;99643.19;4515292;28;20038;-66
2023/07/28 07:09:28;;;;;;;0.38;0.38;;;;;;;22.82;62.36;99651.84;4514964;28;20136;-66
2023/07/28 07:11:38;;;;;;;0.40;0.40;;;;;;;22.78;62.14;99653.06;4500501;28;20058;-66
2023/07/28 07:13:49;;;;;;;0.40;0.40;;;;;;;22.80;62.42;99650.63;4513091;28;20042;-66
2023/07/28 07:16:00;;;;;;;0.50;0.50;;;;;;;22.79;62.34;99655.53;4488056;28;20479;-66
2023/07/28 07:18:11;;;;;;;0.45;0.45;;;;;;;22.78;62.21;99653.06;4513713;28;20077;-66
2023/07/28 07:20:22;;;;;;;0.47;0.47;;;;;;;22.81;62.18;99663.75;4515219;28;20045;-66
2023/07/28 07:22:32;;;;;;;0.35;0.35;;;;;;;22.80;62.03;99659.25;4515306;28;20037;-65
2023/07/28 07:24:43;;;;;;;0.50;0.50;;;;;;;22.79;62.46;99664.16;4503733;28;20403;-65
2023/07/28 07:26:53;;;;;;;0.40;0.40;;;;;;;22.82;62.50;99665.41;4513571;28;20397;-66
2023/07/28 07:29:04;;;;;;;1.17;0.60;;;;;;;22.79;62.82;99666.22;4498481;28;20554;-65
2023/07/28 07:31:15;;;;;;;0.50;0.50;;;;;;;22.76;62.96;99664.16;4516304;28;20026;-65
2023/07/28 07:33:25;;;;;;;0.68;0.68;;;;;;;22.80;63.24;99667.88;4516795;28;20061;-65
2023/07/28 07:35:37;;;;;;;0.90;0.80;;;;;;;22.80;62.84;99677.31;4516785;28;20113;-65
2023/07/28 07:37:48;;;;;;;0.80;0.80;;;;;;;22.76;62.99;99684.28;4517309;28;20044;-66
2023/07/28 07:40:00;;;;;;;0.90;0.80;;;;;;;22.77;62.94;99671.56;4518597;28;20045;-65
2023/07/28 07:42:14;;;;;;;1.42;1.10;;;;;;;22.78;62.97;99681.84;4516229;28;20184;-66
2023/07/28 07:44:25;;;;;;;1.38;1.20;;;;;;;22.79;63.21;99684.31;4517760;28;20038;-65
2023/07/28 07:46:35;;;;;;;1.50;1.02;;;;;;;22.81;63.14;99693.38;4517725;28;20026;-66
2023/07/28 07:48:46;;;;;;;1.25;1.02;;;;;;;22.82;61.65;99689.25;4502234;28;20399;-65
2023/07/28 07:50:56;;;;;;;1.58;1.20;;;;;;;22.80;62.46;99688.03;4516540;28;20504;-65
2023/07/28 07:53:07;;;;;;;1.42;1.33;;;;;;;22.80;62.47;99697.47;4498205;28;20087;-66
2023/07/28 07:55:17;;;;;;;1.30;1.20;;;;;;;22.79;62.66;99694.97;4501470;28;20061;-65
2023/07/28 07:57:28;;;;;;;1.58;1.48;;;;;;;22.77;62.84;99694.59;4517667;28;20627;-65
2023/07/28 07:59:39;;;;;;;1.40;1.30;;;;;;;22.75;62.53;99685.53;4516877;28;20033;-65
2023/07/28 08:01:49;;;;;;;1.60;1.50;;;;;;;22.81;63.00;99698.28;4518035;28;20132;-66
2023/07/28 08:03:59;;;;;;;1.80;1.60;;;;;;;22.83;63.37;99707.34;4502803;28;20070;-66
2023/07/28 08:06:11;;;;;;;1.60;1.50;;;;;;;22.82;63.15;99702.81;4515195;28;20059;-66
2023/07/28 08:08:22;;;;;;;1.90;1.73;;;;;;;22.80;63.27;99711.84;4516393;28;20033;-65
2023/07/28 08:10:33;;;;;;;1.80;1.67;;;;;;;22.82;63.36;99712.28;4516518;28;20153;-66
2023/07/28 08:12:44;;;;;;;1.65;1.55;;;;;;;22.81;62.88;99712.69;4517995;28;20030;-66
2023/07/28 08:14:55;;;;;;;2.03;1.80;;;;;;;22.80;63.15;99699.53;4516655;28;20601;-66
2023/07/28 08:17:05;;;;;;;2.10;1.90;;;;;;;22.75;63.08;99691.28;4514921;28;20044;-66
2023/07/28 08:19:16;;;;;;;1.77;1.67;;;;;;;22.81;63.32;99704.03;4517326;28;20121;-66
2023/07/28 08:21:26;;;;;;;2.13;1.85;;;;;;;22.83;63.68;99713.09;4499021;28;20106;-66
2023/07/28 08:23:37;;;;;;;2.10;1.90;;;;;;;22.81;63.64;99709.78;4503765;28;20056;-66
2023/07/28 08:25:48;;;;;;;2.45;2.00;;;;;;;22.79;63.27;99701.56;4515969;28;20092;-65
2023/07/28 08:27:58;;;;;;;1.95;1.77;;;;;;;22.83;63.22;99701.59;4516733;28;20068;-65
2023/07/28 08:30:09;;;;;;;2.10;1.90;;;;;;;22.83;62.98;99704.47;4515652;28;20068;-65
2023/07/28 08:32:19;;;;;;;1.75;1.65;;;;;;;22.80;62.67;99690.91;4507395;28;20033;-65
2023/07/28 08:34:30;;;;;;;1.80;1.70;;;;;;;22.82;63.21;99711.44;4488737;28;20030;-65
2023/07/28 08:36:40;;;;;;;1.90;1.70;;;;;;;22.79;63.26;99697.84;4516004;28;20044;-65
2023/07/28 08:38:52;;;;;;;1.92;1.73;;;;;;;22.82;63.75;99706.50;4515708;28;20037;-65
2023/07/28 08:41:03;;;;;;;1.85;1.73;;;;;;;22.83;64.88;99695.84;4516276;28;20080;-65
2023/07/28 08:43:13;;;;;;;2.20;2.00;;;;;;;22.78;64.36;99697.06;4497170;28;20044;-65
2023/07/28 08:45:24;;;;;;;2.00;1.80;;;;;;;22.69;64.20;99681.41;4516086;28;20484;-65
2023/07/28 08:47:36;;;;;;;2.20;2.00;;;;;;;22.81;64.16;99710.63;4501487;28;20045;-65
2023/07/28 08:49:47;;;;;;;2.70;2.00;;;;;;;22.80;64.14;99702.41;4516934;28;20037;-65
2023/07/28 08:51:59;;;;;;;2.45;2.00;;;;;;;22.80;64.38;99702.41;4517018;28;20037;-65
2023/07/28 08:54:09;;;;;;;1.90;1.67;;;;;;;22.84;64.80;99723.38;4515974;28;20045;-66
2023/07/28 08:56:20;;;;;;;1.90;1.60;;;;;;;22.83;64.49;99719.69;4503726;28;20565;-66
2023/07/28 08:58:31;;;;;;;2.10;1.88;;;;;;;22.79;62.99;99718.00;4517518;28;20054;-65
2023/07/28 09:00:41;;;;;;;1.70;1.50;;;;;;;22.77;64.31;99714.72;4517099;28;20053;-65
2023/07/28 09:02:52;;;;;;;1.65;1.50;;;;;;;22.82;63.99;99720.91;4501663;28;20038;-65
2023/07/28 09:05:04;;;;;;;1.98;1.65;;;;;;;22.83;63.55;99727.50;4516440;28;20038;-66
2023/07/28 09:07:15;;;;;;;1.90;1.63;;;;;;;22.77;63.43;99729.91;4516550;28;20048;-65
2023/07/28 09:09:31;;;;;;;2.45;1.80;;;;;;;22.83;64.04;99736.97;4517243;28;20063;-66
2023/07/28 09:11:49;;;;;;;;;;;;;;;22.83;64.09;99739.00;4508434;28;20774;-65
2023/07/28 09:14:00;;;;;;;2.50;2.00;;;;;;;22.83;64.02;99734.09;4507674;28;19921;-65
2023/07/28 09:16:22;;;;;;;2.72;2.03;;;;;;;22.85;64.44;99745.19;4516306;28;21237;-66
2023/07/28 09:18:32;;;;;;;2.08;1.88;;;;;;;22.80;64.52;99737.72;4513062;28;20040;-65
2023/07/28 09:20:43;;;;;;;2.53;2.00;;;;;;;22.81;64.24;99744.31;4515291;28;20048;-65
2023/07/28 09:22:54;;;;;;;2.00;1.80;;;;;;;22.85;64.39;99753.81;4502417;28;20057;-66
2023/07/28 09:25:16;;;;;;;2.15;1.88;;;;;;;22.85;64.49;99750.94;4516099;28;20064;-66
2023/07/28 09:27:29;;;;;;;2.60;2.00;;;;;;;22.77;64.37;99740.63;4515492;28;20050;-65
2023/07/28 09:29:40;;;;;;;2.30;2.10;;;;;;;22.81;65.20;99741.44;4515540;28;20042;-65
2023/07/28 09:31:50;;;;;;;2.00;1.70;;;;;;;22.77;65.24;99735.66;4516242;28;20116;-66
2023/07/28 09:34:01;;;;;;;1.98;1.75;;;;;;;22.76;66.05;99724.56;4516065;28;20141;-66
2023/07/28 09:36:15;;;;;;;2.20;1.80;;;;;;;22.71;66.40;99725.78;4514993;28;20045;-65
2023/07/28 09:38:27;;;;;;;2.05;1.60;;;;;;;22.85;66.61;99740.22;4515022;28;20065;-66
2023/07/28 09:40:40;;;;;;;1.60;1.40;;;;;;;22.86;66.29;99741.06;4516762;28;20037;-66
2023/07/28 09:42:50;;;;;;;1.50;1.40;;;;;;;22.81;65.79;99742.28;4515887;28;20112;-66
2023/07/28 09:45:01;;;;;;;1.40;1.30;;;;;;;22.81;66.04;99733.66;4515673;28;20445;-66
2023/07/28 09:47:12;;;;;;;1.90;1.55;;;;;;;22.85;66.99;99748.88;4515666;28;20026;-66
2023/07/28 09:49:39;;;;;;;1.95;1.70;;;;;;;22.85;67.84;99750.94;4514647;28;20041;-67
2023/07/28 09:51:54;;;;;;;2.05;1.70;;;;;;;22.76;67.64;99739.78;4514162;28;20034;-65
2023/07/28 09:54:12;;;;;;;1.90;1.70;;;;;;;22.86;66.69;99758.34;4514043;28;20076;-65
2023/07/28 09:56:29;;;;;;;2.03;1.83;;;;;;;22.82;66.59;99749.69;4498024;28;20040;-65
2023/07/28 09:58:44;;;;;;;2.00;1.80;;;;;;;22.83;67.38;99754.22;4515985;28;20036;-66
2023/07/28 10:00:55;;;;;;;1.80;1.52;;;;;;;22.86;65.75;99764.09;4497895;28;20117;-65
2023/07/28 10:03:09;;;;;;;1.60;1.50;;;;;;;22.85;66.41;99765.31;4516078;28;20112;-65
2023/07/28 10:05:20;;;;;;;1.80;1.70;;;;;;;22.84;65.63;99760.78;4484707;28;20062;-65
2023/07/28 10:07:31;;;;;;;1.98;1.77;;;;;;;22.79;65.11;99752.53;4515785;28;20448;-65
2023/07/28 10:09:41;;;;;;;1.60;1.50;;;;;;;22.86;65.18;99764.09;4516380;28;20042;-65
2023/07/28 10:11:55;;;;;;;2.17;1.60;;;;;;;22.84;65.46;99760.78;4515398;28;21062;-65
2023/07/28 10:14:07;;;;;;;1.95;1.70;;;;;;;22.86;65.39;99764.09;4498058;28;20066;-65
2023/07/28 10:16:18;;;;;;;1.60;1.50;;;;;;;22.76;65.64;99753.34;4515077;28;20072;-66
2023/07/28 10:18:29;;;;;;;1.50;1.40;;;;;;;22.85;65.79;99763.25;4515762;28;20474;-66
2023/07/28 10:20:42;;;;;;;1.60;1.50;;;;;;;22.87;65.44;99772.31;4515261;28;20033;-65
2023/07/28 10:22:53;;;;;;;1.80;1.50;;;;;;;22.84;65.68;99761.63;4515590;28;20034;-65